Upstream stations:
Downstream station:
SHEF ID: BFFO2 Cimarron River near Buffalo, OK
STATION TYPE:
Regulating: Stage = 6.00, Flow = 750
PRECIP STAGE RIV-FLOW BAT-LOAD
in ft cfs volt
Ccp-Rev Ccp-Rev Ccp-Rev Ccp-Rev
(US/Central)
01/22 00:00 0.00 3.23 11 12.65
01/22 01:00 0.00 3.21 10 12.65
01/22 02:00 0.00 3.20 10 12.57
01/22 03:00 0.00 3.18 9 12.57
01/22 04:00 0.00 3.17 8 12.57
01/22 05:00 0.00 3.15 7 12.49
01/22 06:00 0.00 3.14 7 12.49
01/22 07:00 0.00 3.12 6 12.41
01/22 08:00 0.00 3.14 7 12.41
01/22 09:00 0.00 3.10 5 13.05
01/22 10:00 0.00 3.12 6 13.44
01/22 11:00 0.00 3.12 6 13.53
01/22 12:00 0.00 3.13 6 13.60
01/22 13:00 0.00 3.13 6 13.53
01/22 14:00 0.00 3.17 8 13.44
01/22 15:00 0.00 3.15 7 13.60
01/22 16:00 0.00 3.21 10 13.44
01/22 17:00 0.00 3.35 21 13.60
01/22 18:00 0.00 3.36 21 13.37
01/22 19:00 0.00 3.35 21 12.97
01/22 20:00 0.00 3.34 20 12.81
01/22 21:00 0.00 3.33 19 12.81
01/22 22:00 0.00 3.34 20 12.73
01/22 23:00 0.00 3.34 20 12.73